createdAt,value
2017-10-07T00:00:07.408Z,10.85
2017-10-07T00:01:07.457Z,10.85
2017-10-07T00:02:07.414Z,10.86
2017-10-07T00:03:07.413Z,10.85
2017-10-07T00:04:07.414Z,10.88
2017-10-07T00:05:07.415Z,10.89
2017-10-07T00:06:07.420Z,10.91
2017-10-07T00:07:07.428Z,10.93
2017-10-07T00:08:07.440Z,10.92
2017-10-07T00:09:07.512Z,10.93
2017-10-07T00:10:07.445Z,10.95
2017-10-07T00:11:07.526Z,10.93
2017-10-07T00:12:07.450Z,10.93
2017-10-07T00:13:07.540Z,10.94
2017-10-07T00:14:07.447Z,10.94
2017-10-07T00:15:07.456Z,10.95
2017-10-07T00:16:07.460Z,10.96
2017-10-07T00:17:07.457Z,10.95
2017-10-07T00:18:07.464Z,10.94
2017-10-07T00:19:07.489Z,10.92
2017-10-07T00:20:07.470Z,10.92
2017-10-07T00:21:07.493Z,10.91
2017-10-07T00:22:07.481Z,10.91
2017-10-07T00:23:07.496Z,10.93
2017-10-07T00:24:07.482Z,10.94
2017-10-07T00:25:07.520Z,10.93
2017-10-07T00:26:07.489Z,10.94
2017-10-07T00:27:07.525Z,10.93
2017-10-07T00:28:07.501Z,10.94
2017-10-07T00:29:07.498Z,10.92
2017-10-07T00:30:07.506Z,10.89
2017-10-07T00:31:07.562Z,10.88
2017-10-07T00:32:07.514Z,10.89
2017-10-07T00:33:07.509Z,10.91
2017-10-07T00:34:07.515Z,10.91
2017-10-07T00:35:07.515Z,10.90
2017-10-07T00:36:07.524Z,10.93
2017-10-07T00:37:07.523Z,10.90
2017-10-07T00:38:07.533Z,10.90
2017-10-07T00:39:07.539Z,10.90
2017-10-07T00:40:07.540Z,10.88
2017-10-07T00:41:07.537Z,10.86
2017-10-07T00:42:07.541Z,10.86
2017-10-07T00:43:07.544Z,10.85
2017-10-07T00:44:07.549Z,10.84
2017-10-07T00:45:07.557Z,10.81
2017-10-07T00:46:07.554Z,10.82
2017-10-07T00:47:07.570Z,10.80
2017-10-07T00:48:07.562Z,10.83
2017-10-07T00:49:07.574Z,10.86
2017-10-07T00:50:07.577Z,10.85
2017-10-07T00:51:07.575Z,10.86
2017-10-07T00:52:07.576Z,10.86
2017-10-07T00:53:07.582Z,10.88
2017-10-07T00:54:07.589Z,10.86
2017-10-07T00:55:07.625Z,10.81
2017-10-07T00:56:07.588Z,10.80
2017-10-07T00:57:07.638Z,10.79
2017-10-07T00:58:07.602Z,10.78
2017-10-07T00:59:07.602Z,10.77
2017-10-07T01:03:11.897Z,10.78
2017-10-07T01:03:13.624Z,10.79
2017-10-07T01:03:14.526Z,10.80
2017-10-07T01:03:15.641Z,10.83
2017-10-07T01:05:48.583Z,10.82
2017-10-07T01:05:50.882Z,10.81
2017-10-07T01:08:30.409Z,10.82
2017-10-07T01:08:32.012Z,10.82
2017-10-07T01:08:32.824Z,10.82
2017-10-07T01:09:07.850Z,10.84
2017-10-07T01:11:47.263Z,10.87
2017-10-07T01:11:48.680Z,10.86
2017-10-07T01:14:32.174Z,10.85
2017-10-07T01:14:34.459Z,10.83
2017-10-07T01:14:35.374Z,10.82
2017-10-07T01:15:07.657Z,10.82
2017-10-07T01:17:44.240Z,10.77
2017-10-07T01:17:46.366Z,10.78
2017-10-07T01:20:29.895Z,10.77
2017-10-07T01:20:31.424Z,10.75
2017-10-07T01:20:32.326Z,10.76
2017-10-07T01:21:07.672Z,10.75
2017-10-07T01:23:47.059Z,10.73
2017-10-07T01:23:48.293Z,10.74
2017-10-07T01:26:30.282Z,10.75
2017-10-07T01:26:31.838Z,10.77
2017-10-07T01:26:32.743Z,10.77
2017-10-07T01:27:08.328Z,10.73
2017-10-07T01:29:46.890Z,10.73
2017-10-07T01:29:49.084Z,10.73
2017-10-07T01:32:32.025Z,10.73
2017-10-07T01:32:34.779Z,10.76
2017-10-07T01:32:35.587Z,10.77
2017-10-07T01:35:40.985Z,10.79
2017-10-07T01:35:42.461Z,10.81
2017-10-07T01:35:43.276Z,10.81
2017-10-07T01:39:07.036Z,10.82
2017-10-07T01:39:09.767Z,10.82
2017-10-07T01:39:10.778Z,10.80
2017-10-07T01:39:11.698Z,10.78
2017-10-07T01:41:44.095Z,10.78
2017-10-07T01:41:45.702Z,10.78
2017-10-07T01:44:31.493Z,10.73
2017-10-07T01:44:33.023Z,10.70
2017-10-07T01:44:33.834Z,10.71
2017-10-07T01:45:07.817Z,10.71
2017-10-07T01:47:46.883Z,10.72
2017-10-07T01:47:48.352Z,10.71
2017-10-07T01:51:07.211Z,10.73
2017-10-07T01:51:10.146Z,10.72
2017-10-07T01:51:11.066Z,10.69
2017-10-07T01:51:11.975Z,10.71
2017-10-07T01:53:46.924Z,10.73
2017-10-07T01:53:48.399Z,10.73
2017-10-07T01:57:07.242Z,10.73
2017-10-07T01:57:10.010Z,10.73
2017-10-07T01:57:10.920Z,10.75
2017-10-07T01:57:12.141Z,10.76
2017-10-07T01:59:46.898Z,10.76
2017-10-07T01:59:48.963Z,10.76
2017-10-07T02:00:07.803Z,10.77
2017-10-07T02:01:07.806Z,10.75
2017-10-07T02:02:07.857Z,10.75
2017-10-07T02:03:07.813Z,10.74
2017-10-07T02:04:07.825Z,10.74
2017-10-07T02:05:07.859Z,10.75
2017-10-07T02:06:07.837Z,10.75
2017-10-07T02:07:07.896Z,10.72
2017-10-07T02:08:07.836Z,10.70
2017-10-07T02:09:07.910Z,10.68
2017-10-07T02:10:07.842Z,10.68
2017-10-07T02:11:07.923Z,10.68
2017-10-07T02:12:07.842Z,10.67
2017-10-07T02:13:07.927Z,10.67
2017-10-07T02:14:07.850Z,10.67
2017-10-07T02:15:07.850Z,10.66
2017-10-07T02:16:07.852Z,10.67
2017-10-07T02:17:07.872Z,10.67
2017-10-07T02:18:07.859Z,10.67
2017-10-07T02:19:07.886Z,10.65
2017-10-07T02:20:07.869Z,10.66
2017-10-07T02:21:07.889Z,10.64
2017-10-07T02:22:07.876Z,10.63
2017-10-07T02:23:07.878Z,10.66
2017-10-07T02:24:07.883Z,10.65
2017-10-07T02:25:07.887Z,10.67
2017-10-07T02:26:07.886Z,10.68
2017-10-07T02:27:07.891Z,10.68
2017-10-07T02:28:07.896Z,10.69
2017-10-07T02:29:07.900Z,10.70
2017-10-07T02:30:07.900Z,10.76
2017-10-07T02:31:07.905Z,10.78
2017-10-07T02:32:07.910Z,10.80
2017-10-07T02:33:07.912Z,10.78
2017-10-07T02:34:07.929Z,10.76
2017-10-07T02:35:07.926Z,10.72
2017-10-07T02:36:07.923Z,10.71
2017-10-07T02:37:07.988Z,10.71
2017-10-07T02:38:07.957Z,10.74
2017-10-07T02:39:07.938Z,10.73
2017-10-07T02:40:07.934Z,10.67
2017-10-07T02:41:08.015Z,10.67
2017-10-07T02:42:07.942Z,10.67
2017-10-07T02:43:07.947Z,10.70
2017-10-07T02:44:07.947Z,10.70
2017-10-07T02:45:07.948Z,10.69
2017-10-07T02:46:07.953Z,10.66
2017-10-07T02:47:07.964Z,10.64
2017-10-07T02:48:07.959Z,10.63
2017-10-07T02:49:07.959Z,10.59
2017-10-07T02:50:07.966Z,10.59
2017-10-07T02:51:07.968Z,10.60
2017-10-07T02:52:07.974Z,10.59
2017-10-07T02:53:07.974Z,10.56
2017-10-07T02:54:07.982Z,10.55
2017-10-07T02:55:07.984Z,10.57
2017-10-07T02:56:07.989Z,10.57
2017-10-07T02:57:08.032Z,10.58
2017-10-07T02:58:07.996Z,10.60
2017-10-07T02:59:08.046Z,10.59
2017-10-07T03:00:08.009Z,10.60
2017-10-07T03:01:08.001Z,10.60
2017-10-07T03:02:08.006Z,10.57
2017-10-07T03:03:08.053Z,10.57
2017-10-07T03:04:08.017Z,10.57
2017-10-07T03:05:08.020Z,10.56
2017-10-07T03:06:08.032Z,10.57
2017-10-07T03:07:08.082Z,10.56
2017-10-07T03:08:08.022Z,10.55
2017-10-07T03:09:08.026Z,10.56
2017-10-07T03:10:08.035Z,10.55
2017-10-07T03:11:08.037Z,10.57
2017-10-07T03:12:08.042Z,10.62
2017-10-07T03:13:08.294Z,10.65
2017-10-07T03:14:08.049Z,10.68
2017-10-07T03:15:08.050Z,10.67
2017-10-07T03:16:08.055Z,10.68
2017-10-07T03:17:08.056Z,10.68
2017-10-07T03:18:08.062Z,10.67
2017-10-07T03:19:08.061Z,10.69
2017-10-07T03:20:08.066Z,10.62
2017-10-07T03:21:08.071Z,10.61
2017-10-07T03:22:08.764Z,10.63
2017-10-07T03:23:08.076Z,10.61
2017-10-07T03:24:08.079Z,10.62
2017-10-07T03:25:08.122Z,10.59
2017-10-07T03:26:08.085Z,10.61
2017-10-07T03:27:08.127Z,10.63
2017-10-07T03:28:08.092Z,10.65
2017-10-07T03:29:08.140Z,10.63
2017-10-07T03:30:08.110Z,10.63
2017-10-07T03:31:08.106Z,10.65
2017-10-07T03:32:08.113Z,10.66
2017-10-07T03:33:08.108Z,10.68
2017-10-07T03:34:08.113Z,10.66
2017-10-07T03:35:08.119Z,10.66
2017-10-07T03:36:08.132Z,10.65
2017-10-07T03:37:08.196Z,10.65
2017-10-07T03:38:08.126Z,10.65
2017-10-07T03:39:08.208Z,10.66
2017-10-07T03:40:08.131Z,10.65
2017-10-07T03:41:08.137Z,10.66
2017-10-07T03:42:08.139Z,10.64
2017-10-07T03:43:08.145Z,10.66
2017-10-07T03:44:08.147Z,10.67
2017-10-07T03:45:08.159Z,10.68
2017-10-07T03:46:08.149Z,10.69
2017-10-07T03:47:08.153Z,10.70
2017-10-07T03:48:08.157Z,10.73
2017-10-07T03:49:00.182Z,10.73
2017-10-07T03:50:38.888Z,10.75
2017-10-07T03:50:41.435Z,10.78
2017-10-07T03:51:08.188Z,10.78
2017-10-07T03:52:08.169Z,10.77
2017-10-07T03:53:08.201Z,10.74
2017-10-07T03:54:08.175Z,10.73
2017-10-07T03:55:08.215Z,10.73
2017-10-07T03:56:08.185Z,10.73
2017-10-07T03:57:08.190Z,10.72
2017-10-07T03:58:08.192Z,10.71
2017-10-07T03:59:08.194Z,10.73
2017-10-07T04:00:08.205Z,10.73
2017-10-07T04:01:08.201Z,10.72
2017-10-07T04:02:08.203Z,10.71
2017-10-07T04:03:08.207Z,10.70
2017-10-07T04:04:08.211Z,10.69
2017-10-07T04:05:08.218Z,10.70
2017-10-07T04:06:08.221Z,10.69
2017-10-07T04:07:08.237Z,10.68
2017-10-07T04:08:08.221Z,10.68
2017-10-07T04:09:08.228Z,10.71
2017-10-07T04:10:08.228Z,10.70
2017-10-07T04:11:08.315Z,10.70
2017-10-07T04:12:08.543Z,10.69
2017-10-07T04:13:08.502Z,10.67
2017-10-07T04:14:08.243Z,10.62
2017-10-07T04:15:08.342Z,10.54
2017-10-07T04:16:08.252Z,10.52
2017-10-07T04:17:08.255Z,10.52
2017-10-07T04:18:08.259Z,10.51
2017-10-07T04:19:08.298Z,10.53
2017-10-07T04:20:08.264Z,10.52
2017-10-07T04:21:08.454Z,10.50
2017-10-07T04:22:08.271Z,10.45
2017-10-07T04:23:08.296Z,10.43
2017-10-07T04:24:08.280Z,10.41
2017-10-07T04:25:08.309Z,10.41
2017-10-07T04:26:08.281Z,10.42
2017-10-07T04:27:08.286Z,10.42
2017-10-07T04:28:08.289Z,10.42
2017-10-07T04:29:08.293Z,10.41
2017-10-07T04:30:08.305Z,10.43
2017-10-07T04:31:08.301Z,10.43
2017-10-07T04:32:08.303Z,10.44
2017-10-07T04:33:08.306Z,10.43
2017-10-07T04:34:08.307Z,10.41
2017-10-07T04:35:08.313Z,10.39
2017-10-07T04:36:08.319Z,10.38
2017-10-07T04:37:08.392Z,10.38
2017-10-07T04:38:08.323Z,10.37
2017-10-07T04:39:08.406Z,10.36
2017-10-07T04:40:08.328Z,10.38
2017-10-07T04:41:08.419Z,10.38
2017-10-07T04:42:08.336Z,10.36
2017-10-07T04:43:08.339Z,10.40
2017-10-07T04:44:08.344Z,10.39
2017-10-07T04:45:08.349Z,10.40
2017-10-07T04:46:08.356Z,10.43
2017-10-07T04:47:08.357Z,10.46
2017-10-07T04:48:08.355Z,10.50
2017-10-07T04:49:08.358Z,10.53
2017-10-07T04:50:08.362Z,10.55
2017-10-07T04:51:08.371Z,10.53
2017-10-07T04:52:08.377Z,10.48
2017-10-07T04:53:08.399Z,10.44
2017-10-07T04:54:08.373Z,10.45
2017-10-07T04:55:08.586Z,10.47
2017-10-07T04:56:08.382Z,10.47
2017-10-07T04:57:08.497Z,10.47
2017-10-07T04:58:08.390Z,10.50
2017-10-07T04:59:08.392Z,10.51
2017-10-07T05:00:08.464Z,10.48
2017-10-07T05:01:08.424Z,10.47
2017-10-07T05:02:08.402Z,10.44
2017-10-07T05:03:08.478Z,10.45
2017-10-07T05:04:08.414Z,10.45
2017-10-07T05:05:08.450Z,10.41
2017-10-07T05:06:08.416Z,10.39
2017-10-07T05:07:08.463Z,10.36
2017-10-07T05:08:08.432Z,10.31
2017-10-07T05:09:08.477Z,10.27
2017-10-07T05:10:08.429Z,10.22
2017-10-07T05:11:08.433Z,10.22
2017-10-07T05:12:08.438Z,10.22
2017-10-07T05:13:08.504Z,10.21
2017-10-07T05:14:08.450Z,10.22
2017-10-07T05:15:08.444Z,10.24
2017-10-07T05:16:08.451Z,10.22
2017-10-07T05:17:08.634Z,10.15
2017-10-07T05:18:08.459Z,10.13
2017-10-07T05:19:08.546Z,10.09
2017-10-07T05:20:08.462Z,10.07
2017-10-07T05:21:08.764Z,10.08
2017-10-07T05:22:08.471Z,10.09
2017-10-07T05:23:08.472Z,10.06
2017-10-07T05:24:08.475Z,10.04
2017-10-07T05:25:08.479Z,10.01
2017-10-07T05:26:08.481Z,9.97
2017-10-07T05:27:08.601Z,9.91
2017-10-07T05:28:08.488Z,9.84
2017-10-07T05:29:08.614Z,9.80
2017-10-07T05:30:08.499Z,9.78
2017-10-07T05:31:08.500Z,9.70
2017-10-07T05:32:08.504Z,9.70
2017-10-07T05:33:08.642Z,9.69
2017-10-07T05:34:08.521Z,9.70
2017-10-07T05:35:08.585Z,9.69
2017-10-07T05:36:08.515Z,9.68
2017-10-07T05:37:08.669Z,9.69
2017-10-07T05:38:08.527Z,9.70
2017-10-07T05:39:08.786Z,9.70
2017-10-07T05:40:08.531Z,9.73
2017-10-07T05:41:08.799Z,9.75
2017-10-07T05:42:08.540Z,9.77
2017-10-07T05:43:08.541Z,9.78
2017-10-07T05:44:08.543Z,9.79
2017-10-07T05:45:08.723Z,9.80
2017-10-07T05:46:08.559Z,9.81
2017-10-07T05:47:08.552Z,9.84
2017-10-07T05:48:08.561Z,9.83
2017-10-07T05:49:08.752Z,9.84
2017-10-07T05:50:08.564Z,9.86
2017-10-07T05:51:08.572Z,9.88
2017-10-07T05:52:08.571Z,9.89
2017-10-07T05:53:08.677Z,9.89
2017-10-07T05:54:08.577Z,9.91
2017-10-07T05:55:08.691Z,9.93
2017-10-07T05:56:08.580Z,9.95
2017-10-07T05:57:08.705Z,9.96
2017-10-07T05:58:08.585Z,9.97
2017-10-07T05:59:08.718Z,10.00
2017-10-07T06:00:08.599Z,10.00
2017-10-07T06:01:08.605Z,9.99
2017-10-07T06:02:08.610Z,10.02
2017-10-07T06:03:08.745Z,10.05
2017-10-07T06:04:08.606Z,10.08
2017-10-07T06:05:08.760Z,10.13
2017-10-07T06:06:08.617Z,10.16
2017-10-07T06:07:08.774Z,10.18
2017-10-07T06:08:08.625Z,10.22
2017-10-07T06:09:08.787Z,10.25
2017-10-07T06:10:08.629Z,10.28
2017-10-07T06:11:08.698Z,10.32
2017-10-07T06:12:08.657Z,10.34
2017-10-07T06:13:08.640Z,10.33
2017-10-07T06:14:08.641Z,10.33
2017-10-07T06:15:08.726Z,10.32
2017-10-07T06:16:08.655Z,10.32
2017-10-07T06:17:08.739Z,10.34
2017-10-07T06:18:08.655Z,10.34
2017-10-07T06:19:08.668Z,10.34
2017-10-07T06:20:08.661Z,10.34
2017-10-07T06:21:08.666Z,10.36
2017-10-07T06:22:08.668Z,10.36
2017-10-07T06:23:08.674Z,10.37
2017-10-07T06:24:08.676Z,10.39
2017-10-07T06:25:08.681Z,10.41
2017-10-07T06:26:08.683Z,10.42
2017-10-07T06:27:08.807Z,10.45
2017-10-07T06:28:08.687Z,10.49
2017-10-07T06:29:08.820Z,10.52
2017-10-07T06:30:08.706Z,10.56
2017-10-07T06:31:08.836Z,10.58
2017-10-07T06:32:08.699Z,10.59
2017-10-07T06:33:08.746Z,10.63
2017-10-07T06:34:08.705Z,10.61
2017-10-07T06:35:08.761Z,10.63
2017-10-07T06:36:08.714Z,10.69
2017-10-07T06:37:08.876Z,10.72
2017-10-07T06:38:08.726Z,10.78
2017-10-07T06:39:08.730Z,10.82
2017-10-07T06:40:08.725Z,10.88
2017-10-07T06:41:08.802Z,10.93
2017-10-07T06:42:08.731Z,10.96
2017-10-07T06:43:08.816Z,11.01
2017-10-07T06:44:08.737Z,10.99
2017-10-07T06:45:08.828Z,11.00
2017-10-07T06:46:08.747Z,11.01
2017-10-07T06:47:08.750Z,11.01
2017-10-07T06:48:08.752Z,11.03
2017-10-07T06:49:08.856Z,11.02
2017-10-07T06:50:08.767Z,11.00
2017-10-07T06:51:08.777Z,11.01
2017-10-07T06:52:08.777Z,11.02
2017-10-07T06:53:08.782Z,11.02
2017-10-07T06:54:08.776Z,11.03
2017-10-07T06:55:08.795Z,11.03
2017-10-07T06:56:08.786Z,11.04
2017-10-07T06:57:08.842Z,11.06
2017-10-07T06:58:08.787Z,11.07
2017-10-07T06:59:08.787Z,11.08
2017-10-07T07:00:08.793Z,11.09
2017-10-07T07:01:08.938Z,11.09
2017-10-07T07:02:08.806Z,11.07
2017-10-07T07:03:08.804Z,11.09
2017-10-07T07:04:08.807Z,11.12
2017-10-07T07:05:08.965Z,11.09
2017-10-07T07:06:08.815Z,11.12
2017-10-07T07:07:08.981Z,11.15
2017-10-07T07:08:08.822Z,11.17
2017-10-07T07:09:08.892Z,11.19
2017-10-07T07:10:08.826Z,11.22
2017-10-07T07:11:09.007Z,11.23
2017-10-07T07:12:08.832Z,11.27
2017-10-07T07:13:08.908Z,11.29
2017-10-07T07:14:08.840Z,11.30
2017-10-07T07:15:08.932Z,11.32
2017-10-07T07:16:08.847Z,11.36
2017-10-07T07:17:08.857Z,11.40
2017-10-07T07:18:08.855Z,11.43
2017-10-07T07:19:08.862Z,11.45
2017-10-07T07:20:08.862Z,11.46
2017-10-07T07:21:08.872Z,11.45
2017-10-07T07:22:08.876Z,11.46
2017-10-07T07:23:08.870Z,11.48
2017-10-07T07:24:08.878Z,11.55
2017-10-07T07:25:08.900Z,11.61
2017-10-07T07:26:08.879Z,11.59
2017-10-07T07:27:08.881Z,11.61
2017-10-07T07:28:08.886Z,11.65
2017-10-07T07:29:09.028Z,11.66
2017-10-07T07:30:08.898Z,11.69
2017-10-07T07:31:08.930Z,11.74
2017-10-07T07:32:08.900Z,11.81
2017-10-07T07:33:08.901Z,11.86
2017-10-07T07:34:08.906Z,11.87
2017-10-07T07:35:08.968Z,11.92
2017-10-07T07:36:08.915Z,11.93
2017-10-07T07:37:09.277Z,11.88
2017-10-07T07:38:08.922Z,11.90
2017-10-07T07:39:08.984Z,11.91
2017-10-07T07:40:08.932Z,11.89
2017-10-07T07:41:09.111Z,11.89
2017-10-07T07:42:08.933Z,11.87
2017-10-07T07:43:08.935Z,11.87
2017-10-07T07:44:08.940Z,11.90
2017-10-07T07:45:09.131Z,11.94
2017-10-07T07:46:08.957Z,11.95
2017-10-07T07:47:09.039Z,11.93
2017-10-07T07:48:08.953Z,11.88
2017-10-07T07:49:08.962Z,11.87
2017-10-07T07:50:08.958Z,11.86
2017-10-07T07:51:08.974Z,11.88
2017-10-07T07:52:08.972Z,11.87
2017-10-07T07:53:08.996Z,11.87
2017-10-07T07:54:08.973Z,11.89
2017-10-07T07:55:09.104Z,11.89
2017-10-07T07:56:08.984Z,11.92
2017-10-07T07:57:09.018Z,11.89
2017-10-07T07:58:08.992Z,11.92
2017-10-07T07:59:08.996Z,11.95
2017-10-07T08:00:08.996Z,12.00
2017-10-07T08:01:09.002Z,12.08
2017-10-07T08:02:09.003Z,12.12
2017-10-07T08:03:09.058Z,12.14
2017-10-07T08:04:09.005Z,12.14
2017-10-07T08:05:09.070Z,12.13
2017-10-07T08:06:09.013Z,12.11
2017-10-07T08:07:09.084Z,12.13
2017-10-07T08:08:09.019Z,12.11
2017-10-07T08:09:09.026Z,12.09
2017-10-07T08:10:09.029Z,12.04
2017-10-07T08:11:09.040Z,12.03
2017-10-07T08:12:09.034Z,12.05
2017-10-07T08:13:09.134Z,12.04
2017-10-07T08:14:09.036Z,12.04
2017-10-07T08:15:09.129Z,12.02
2017-10-07T08:16:09.051Z,12.01
2017-10-07T08:17:09.257Z,11.99
2017-10-07T08:18:09.050Z,11.95
2017-10-07T08:19:09.052Z,11.94
2017-10-07T08:20:09.057Z,11.91
2017-10-07T08:21:09.060Z,11.86
2017-10-07T08:22:09.063Z,11.85
2017-10-07T08:23:09.194Z,11.85
2017-10-07T08:24:09.069Z,11.85
2017-10-07T08:25:09.077Z,11.84
2017-10-07T08:26:09.118Z,11.84
2017-10-07T08:27:09.083Z,11.83
2017-10-07T08:28:09.085Z,11.84
2017-10-07T08:29:09.089Z,11.78
2017-10-07T08:30:09.094Z,11.79
2017-10-07T08:31:09.103Z,11.84
2017-10-07T08:32:09.096Z,11.89
2017-10-07T08:33:09.265Z,11.91
2017-10-07T08:34:09.105Z,11.91
2017-10-07T08:35:09.104Z,11.94
2017-10-07T08:36:09.117Z,11.98
2017-10-07T08:37:09.114Z,12.06
2017-10-07T08:38:09.115Z,12.05
2017-10-07T08:39:09.182Z,12.12
2017-10-07T08:40:09.127Z,12.21
2017-10-07T08:41:09.167Z,12.29
2017-10-07T08:42:09.144Z,12.40
2017-10-07T08:43:09.161Z,12.43
2017-10-07T08:44:09.139Z,12.44
2017-10-07T08:45:09.142Z,12.35
2017-10-07T08:46:09.161Z,12.31
2017-10-07T08:47:09.248Z,12.29
2017-10-07T08:48:09.447Z,12.23
2017-10-07T08:49:09.167Z,12.24
2017-10-07T08:50:09.158Z,12.26
2017-10-07T08:51:09.182Z,12.25
2017-10-07T08:52:09.165Z,12.25
2017-10-07T08:53:09.165Z,12.24
2017-10-07T08:54:09.169Z,12.16
2017-10-07T08:55:09.203Z,12.15
2017-10-07T08:56:09.171Z,12.16
2017-10-07T08:57:09.545Z,12.14
2017-10-07T08:58:09.187Z,12.13
2017-10-07T08:59:09.191Z,12.16
2017-10-07T09:00:09.193Z,12.22
2017-10-07T09:01:09.240Z,12.26
2017-10-07T09:02:09.197Z,12.31
2017-10-07T09:03:09.356Z,12.35
2017-10-07T09:04:09.211Z,12.43
2017-10-07T09:05:09.267Z,12.51
2017-10-07T09:06:09.209Z,12.57
2017-10-07T09:07:09.291Z,12.65
2017-10-07T09:08:09.215Z,12.71
2017-10-07T09:09:09.295Z,12.81
2017-10-07T09:10:09.243Z,12.85
2017-10-07T09:11:09.309Z,12.90
2017-10-07T09:12:09.243Z,12.98
2017-10-07T09:13:09.232Z,13.07
2017-10-07T09:14:09.232Z,13.10
2017-10-07T09:15:09.243Z,13.23
2017-10-07T09:16:09.241Z,13.26
2017-10-07T09:17:09.247Z,13.34
2017-10-07T09:18:09.250Z,13.28
2017-10-07T09:19:09.268Z,13.25
2017-10-07T09:20:09.264Z,13.31
2017-10-07T09:21:09.266Z,13.29
2017-10-07T09:22:09.260Z,13.23
2017-10-07T09:23:09.289Z,13.19
2017-10-07T09:24:09.272Z,13.17
2017-10-07T09:25:09.303Z,13.14
2017-10-07T09:26:09.276Z,13.17
2017-10-07T09:27:09.281Z,13.24
2017-10-07T09:28:09.303Z,13.21
2017-10-07T09:29:09.296Z,13.19
2017-10-07T09:30:09.290Z,13.20
2017-10-07T09:31:09.334Z,13.21
2017-10-07T09:32:09.294Z,12.98
2017-10-07T09:33:09.368Z,12.93
2017-10-07T09:34:09.300Z,12.82
2017-10-07T09:35:09.381Z,12.72
2017-10-07T09:36:09.308Z,12.73
2017-10-07T09:37:09.375Z,12.80
2017-10-07T09:38:09.316Z,12.74
2017-10-07T09:39:09.409Z,12.79
2017-10-07T09:40:09.325Z,12.90
2017-10-07T09:41:09.383Z,12.97
2017-10-07T09:42:09.333Z,13.08
2017-10-07T09:43:09.416Z,13.13
2017-10-07T09:44:09.332Z,13.09
2017-10-07T09:45:09.359Z,13.08
2017-10-07T09:46:09.353Z,13.16
2017-10-07T09:47:09.344Z,13.24
2017-10-07T09:48:09.347Z,13.29
2017-10-07T09:49:09.359Z,13.30
2017-10-07T09:50:09.353Z,13.38
2017-10-07T09:51:09.376Z,13.44
2017-10-07T09:52:09.358Z,13.51
2017-10-07T09:53:09.381Z,13.57
2017-10-07T09:54:09.374Z,13.57
2017-10-07T09:55:09.396Z,13.56
2017-10-07T09:56:09.373Z,13.54
2017-10-07T09:57:09.410Z,13.44
2017-10-07T09:58:09.393Z,13.19
2017-10-07T09:59:09.431Z,13.22
2017-10-07T10:00:09.390Z,13.30
2017-10-07T10:01:09.394Z,13.37
2017-10-07T10:02:09.393Z,13.36
2017-10-07T10:03:09.406Z,13.46
2017-10-07T10:04:09.401Z,13.50
2017-10-07T10:05:09.405Z,13.55
2017-10-07T10:06:09.409Z,13.54
2017-10-07T10:07:09.413Z,13.50
2017-10-07T10:08:09.425Z,13.35
2017-10-07T10:09:09.493Z,13.31
2017-10-07T10:10:09.420Z,13.34
2017-10-07T10:11:09.508Z,13.40
2017-10-07T10:12:09.432Z,13.45
2017-10-07T10:13:09.531Z,13.43
2017-10-07T10:14:09.444Z,13.49
2017-10-07T10:15:09.437Z,13.57
2017-10-07T10:16:09.442Z,13.76
2017-10-07T10:17:09.445Z,14.22
2017-10-07T10:18:09.444Z,14.54
2017-10-07T10:19:09.485Z,14.64
2017-10-07T10:20:09.454Z,14.55
2017-10-07T10:21:09.464Z,14.43
2017-10-07T10:22:09.467Z,14.40
2017-10-07T10:23:09.461Z,14.28
2017-10-07T10:24:09.466Z,14.37
2017-10-07T10:25:09.471Z,14.43
2017-10-07T10:26:09.478Z,14.51
2017-10-07T10:27:09.480Z,14.49
2017-10-07T10:28:09.480Z,14.48
2017-10-07T10:29:09.510Z,14.35
2017-10-07T10:30:09.507Z,14.22
2017-10-07T10:31:09.563Z,14.20
2017-10-07T10:32:09.494Z,14.21
2017-10-07T10:33:09.547Z,14.16
2017-10-07T10:34:09.499Z,14.19
2017-10-07T10:35:09.503Z,14.20
2017-10-07T10:36:09.507Z,14.18
2017-10-07T10:37:09.509Z,14.11
2017-10-07T10:38:09.513Z,13.94
2017-10-07T10:39:09.520Z,13.90
2017-10-07T10:40:09.520Z,13.95
2017-10-07T10:41:09.592Z,13.91
2017-10-07T10:42:09.533Z,13.92
2017-10-07T10:43:09.616Z,13.92
2017-10-07T10:44:09.548Z,13.96
2017-10-07T10:45:09.542Z,13.96
2017-10-07T10:46:09.543Z,13.96
2017-10-07T10:47:09.546Z,13.98
2017-10-07T10:48:09.552Z,14.01
2017-10-07T10:49:09.550Z,14.04
2017-10-07T10:50:09.552Z,14.07
2017-10-07T10:51:09.709Z,14.04
2017-10-07T10:52:09.564Z,14.04
2017-10-07T10:53:09.583Z,14.02
2017-10-07T10:54:09.565Z,13.92
2017-10-07T10:55:09.601Z,13.80
2017-10-07T10:56:09.575Z,13.75
2017-10-07T10:57:09.589Z,13.63
2017-10-07T10:58:09.581Z,13.62
2017-10-07T10:59:09.624Z,13.61
2017-10-07T11:00:09.588Z,13.63
2017-10-07T11:01:09.638Z,13.59
2017-10-07T11:02:09.593Z,13.56
2017-10-07T11:03:09.661Z,13.61
2017-10-07T11:04:09.603Z,13.64
2017-10-07T11:05:09.609Z,13.70
2017-10-07T11:06:09.604Z,13.69
2017-10-07T11:07:09.613Z,13.69
2017-10-07T11:08:09.612Z,13.77
2017-10-07T11:09:09.617Z,13.72
2017-10-07T11:10:09.652Z,13.72
2017-10-07T11:11:09.700Z,13.74
2017-10-07T11:12:09.630Z,13.74
2017-10-07T11:13:09.714Z,13.73
2017-10-07T11:14:09.643Z,13.69
2017-10-07T11:15:09.637Z,13.63
2017-10-07T11:16:09.643Z,13.58
2017-10-07T11:17:09.648Z,13.47
2017-10-07T11:18:09.645Z,13.42
2017-10-07T11:19:09.662Z,13.41
2017-10-07T11:20:09.652Z,13.33
2017-10-07T11:21:09.674Z,13.32
2017-10-07T11:22:09.685Z,13.36
2017-10-07T11:23:09.660Z,13.30
2017-10-07T11:24:09.698Z,13.31
2017-10-07T11:25:09.701Z,13.36
2017-10-07T11:26:09.673Z,13.40
2017-10-07T11:27:09.715Z,13.44
2017-10-07T11:28:09.697Z,13.45
2017-10-07T11:29:09.729Z,13.48
2017-10-07T11:30:09.685Z,13.52
2017-10-07T11:31:09.733Z,13.59
2017-10-07T11:32:09.698Z,13.67
2017-10-07T11:33:09.737Z,13.75
2017-10-07T11:34:09.698Z,13.81
2017-10-07T11:35:09.800Z,13.81
2017-10-07T11:36:09.709Z,13.81
2017-10-07T11:37:09.774Z,13.77
2017-10-07T11:38:09.714Z,13.83
2017-10-07T11:39:09.828Z,13.87
2017-10-07T11:40:09.720Z,13.91
2017-10-07T11:41:09.723Z,13.83
2017-10-07T11:42:09.729Z,13.79
2017-10-07T11:43:09.736Z,13.66
2017-10-07T11:44:09.730Z,13.61
2017-10-07T11:45:09.735Z,13.55
2017-10-07T11:46:09.739Z,13.50
2017-10-07T11:47:09.763Z,13.44
2017-10-07T11:48:09.746Z,13.42
2017-10-07T11:49:09.863Z,13.41
2017-10-07T11:50:09.757Z,13.39
2017-10-07T11:51:09.781Z,13.34
2017-10-07T11:52:09.760Z,13.27
2017-10-07T11:53:09.811Z,13.26
2017-10-07T11:54:09.773Z,13.21
2017-10-07T11:55:09.772Z,13.14
2017-10-07T11:56:09.769Z,13.10
2017-10-07T11:57:09.795Z,13.08
2017-10-07T11:58:09.784Z,13.07
2017-10-07T11:59:09.789Z,13.02
2017-10-07T12:00:09.786Z,13.05
2017-10-07T12:01:09.797Z,13.05
2017-10-07T12:02:09.791Z,13.05
2017-10-07T12:03:09.803Z,13.06
2017-10-07T12:04:09.803Z,13.02
2017-10-07T12:05:09.808Z,13.04
2017-10-07T12:06:09.811Z,13.09
2017-10-07T12:07:09.807Z,13.13
2017-10-07T12:08:09.818Z,13.17
2017-10-07T12:09:09.817Z,13.18
2017-10-07T12:10:09.821Z,13.24
2017-10-07T12:11:09.827Z,13.28
2017-10-07T12:12:09.828Z,13.34
2017-10-07T12:13:09.835Z,13.40
2017-10-07T12:14:09.836Z,13.44
2017-10-07T12:15:09.860Z,13.49
2017-10-07T12:16:09.837Z,13.50
2017-10-07T12:17:09.847Z,13.47
2017-10-07T12:18:09.849Z,13.48
2017-10-07T12:19:09.860Z,13.49
2017-10-07T12:20:09.851Z,13.49
2017-10-07T12:21:09.960Z,13.52
2017-10-07T12:22:09.862Z,13.51
2017-10-07T12:23:09.888Z,13.49
2017-10-07T12:24:09.869Z,13.47
2017-10-07T12:25:09.874Z,13.47
2017-10-07T12:26:09.874Z,13.47
2017-10-07T12:27:09.897Z,13.48
2017-10-07T12:28:09.885Z,13.43
2017-10-07T12:29:09.899Z,13.38
2017-10-07T12:30:09.887Z,13.34
2017-10-07T12:31:09.922Z,13.30
2017-10-07T12:32:09.892Z,13.29
2017-10-07T12:33:09.899Z,13.31
2017-10-07T12:34:09.899Z,13.26
2017-10-07T12:35:09.905Z,13.23
2017-10-07T12:36:09.910Z,13.27
2017-10-07T12:37:09.909Z,13.23
2017-10-07T12:38:09.911Z,13.25
2017-10-07T12:39:09.931Z,13.29
2017-10-07T12:40:09.920Z,13.24
2017-10-07T12:41:09.932Z,13.28
2017-10-07T12:42:09.926Z,13.31
2017-10-07T12:43:09.931Z,13.32
2017-10-07T12:44:09.939Z,13.30
2017-10-07T12:45:09.949Z,13.31
2017-10-07T12:46:09.943Z,13.25
2017-10-07T12:47:10.013Z,13.20
2017-10-07T12:48:09.947Z,13.13
2017-10-07T12:49:09.950Z,13.12
2017-10-07T12:50:09.959Z,13.11
2017-10-07T12:51:09.978Z,13.12
2017-10-07T12:52:09.963Z,13.16